• Join FlightAware (Why Join?)
  • Login
  • US Flag 
01:12AM EDT


 

Airport Tracker/Info


-or-


 

Live Flight TrackerFlight Track Log ✈ SWA193 ✈ 18-Apr-2013 ✈ KFLL - KISP

Flight Track Log - Related Links

Times and Time Zones

All times are in EDT time to prevent confusion due to time zone crossing. See the SWA193 flight status page for this flight to view local times or setup timezone preferences in your user account.

Time Position Orientation Groundspeed Altitude Reporting Facility
EDT Latitude Longitude Course Direction KTS MPH feet Rate Location/Type
07:40AM 26.0747 -80.1414 81° East 161 185 700  Level Miami Center
07:41AM 26.0822 -80.0861 81° East 207 238 2,900 2,640 Climbing Miami Center
07:42AM 26.0947 -80.0008 81° East 257 296 6,400 3,180 Climbing Miami Center
07:43AM 26.1358 -79.9278 58° Northeast 299 344 9,900 3,480 Climbing Miami Center
07:44AM 26.1814 -79.8503 57° Northeast 299 344 13,700 2,580 Climbing Miami Center
07:45AM 26.2375 -79.7589 56° Northeast 317 365 15,100 2,100 Climbing Miami Center
07:46AM 26.3044 -79.6425 57° Northeast 384 442 17,900 2,700 Climbing Miami Center
07:47AM 26.3669 -79.5372 56° Northeast 416 479 20,500 2,640 Climbing Miami Center
07:48AM 26.4381 -79.4183 56° Northeast 441 507 23,200 2,400 Climbing Miami Center
07:49AM 26.5092 -79.3014 56° Northeast 447 514 25,300 1,860 Climbing Miami Center
07:50AM 26.5800 -79.1867 55° Northeast 469 540 27,000 1,920 Climbing Miami Center
07:51AM 26.6733 -79.0817 45° Northeast 480 552 29,200 2,100 Climbing Miami Center
07:52AM 26.7975 -79.0328 19° North 462 532 31,200 1,920 Climbing Miami Center
07:53AM 26.9233 -78.9839 19° North 455 524 33,100 1,980 Climbing Miami Center
07:54AM 27.0514 -78.9394 17° North 470 541 35,200 2,460 Climbing Miami Center
07:55AM 27.1839 -78.8811 21° North 468 539 38,100 2,280 Climbing Miami Center
07:56AM 27.3014 -78.8386 18° North 456 525 39,800 1,320 Climbing Miami Center
07:57AM 27.4189 -78.7964 18° North 445 512 40,800 600 Climbing Miami Center
07:58AM 27.5236 -78.7817 North 434 499 41,000 60 Climbing Miami Center
07:59AM 27.6575 -78.7606 North 426 490 41,000  Level Miami Center
08:00AM 27.7767 -78.7436 North 431 496 41,000  Level Miami Center
08:01AM 27.8731 -78.7289 North 426 490 41,000  Level Miami Center
08:02AM 28.0131 -78.7100 North 419 482 41,000  Level Miami Center
08:03AM 28.1344 -78.6908 North 430 495 41,000  Level Miami Center
08:04AM 28.2536 -78.6739 North 430 495 41,000  Level Miami Center
08:05AM 28.3625 -78.6592 North 439 505 41,000  Level Miami Center
08:06AM 28.4858 -78.6397 North 439 505 41,000  Level Miami Center
08:07AM 28.6050 -78.6228 North 439 505 41,000  Level Miami Center
08:08AM 28.7242 -78.6033 North 428 493 41,000  Level Miami Center
08:09AM 28.8475 -78.5861 North 428 493 41,000  Level Miami Center
08:10AM 28.9708 -78.5692 North 433 498 41,000  Level Miami Center
08:11AM 29.0878 -78.5519 North 433 498 41,000  Level Miami Center
08:12AM 29.2050 -78.5300 North 428 493 41,000  Level Miami Center
08:13AM 29.3283 -78.5128 North 423 487 41,000  Level Miami Center
08:15AM 29.6072 -78.4642 North 438 504 41,000  Level Jacksonville Center
08:16AM 29.7300 -78.4492 North 443 510 41,000  Level Jacksonville Center
08:17AM 29.8525 -78.4317 North 443 510 41,000  Level Jacksonville Center
08:18AM 29.9769 -78.4139 North 443 510 41,000  Level Jacksonville Center
08:19AM 30.0953 -78.3917 North 443 510 41,000  Level Jacksonville Center
08:20AM 30.2333 -78.3467 16° North 452 520 41,000  Level Jacksonville Center
08:21AM 30.3492 -78.3122 14° North 439 505 41,000  Level Jacksonville Center
08:22AM 30.4728 -78.2678 17° North 442 509 41,000  Level Jacksonville Center
08:23AM 30.5758 -78.2289 18° North 442 509 41,000  Level Jacksonville Center
08:24AM 30.6953 -78.1894 16° North 442 509 41,000  Level Jacksonville Center
08:25AM 30.8233 -78.1514 14° North 436 502 41,000  Level Jacksonville Center
08:26AM 30.9428 -78.1117 16° North 435 501 41,000  Level Jacksonville Center
08:27AM 31.0497 -78.0650 20° North 435 501 41,000  Level Jacksonville Center
08:28AM 31.1694 -78.0297 14° North 435 501 41,000  Level Jacksonville Center
08:29AM 31.2867 -77.9872 17° North 435 501 41,000  Level Jacksonville Center
08:30AM 31.4019 -77.9469 17° North 435 501 41,000  Level Jacksonville Center
08:31AM 31.5217 -77.9114 14° North 435 501 41,000  Level Jacksonville Center
08:32AM 31.6411 -77.8686 17° North 435 501 41,000  Level Jacksonville Center
08:33AM 31.7603 -77.8228 18° North 435 501 41,000  Level Jacksonville Center
08:34AM 31.8797 -77.7822 16° North 435 501 41,000  Level Jacksonville Center
08:35AM 31.9992 -77.7411 16° North 435 501 41,000  Level Jacksonville Center
08:36AM 32.1186 -77.7025 15° North 435 501 41,000  Level Jacksonville Center
08:37AM 32.2400 -77.6589 17° North 440 506 41,000  Level Jacksonville Center
08:38AM 32.3594 -77.6200 15° North 440 506 41,000  Level Jacksonville Center
08:39AM 32.4786 -77.5739 18° North 440 506 41,000  Level Jacksonville Center
08:40AM 32.5978 -77.5322 16° North 440 506 41,000  Level Jacksonville Center
08:41AM 32.7128 -77.4908 17° North 440 506 41,000  Level Jacksonville Center
08:42AM 32.8322 -77.4492 16° North 435 501 41,000  Level Jacksonville Center
08:43AM 32.9494 -77.4100 16° North 435 501 41,000  Level Jacksonville Center
08:45AM 33.0992 -77.3539 17° North 454 522 41,000  Level Washington Center
08:46AM 33.2167 -77.3117 17° North 447 514 41,000  Level Washington Center
08:47AM 33.3361 -77.2694 16° North 442 509 41,000  Level Washington Center
08:48AM 33.4514 -77.2269 17° North 442 509 41,000  Level Washington Center
08:49AM 33.5814 -77.1822 16° North 437 503 41,000  Level Washington Center
08:50AM 33.6986 -77.1369 18° North 442 509 41,000  Level Washington Center
08:51AM 33.8161 -77.0992 15° North 437 503 41,000  Level Washington Center
08:52AM 33.9356 -77.0514 18° North 443 510 41,000  Level Washington Center
08:53AM 34.0528 -77.0108 16° North 443 510 41,000  Level Washington Center
08:54AM 34.1703 -76.9675 17° North 443 510 41,000  Level Washington Center
08:55AM 34.2897 -76.9244 17° North 443 510 41,000  Level Washington Center
08:56AM 34.4089 -76.8783 18° North 443 510 41,000  Level Washington Center
08:57AM 34.5283 -76.8375 16° North 443 510 41,000  Level Washington Center
08:58AM 34.6456 -76.7914 18° North 443 510 41,000  Level Washington Center
08:59AM 34.7650 -76.7475 17° North 443 510 41,000  Level Washington Center
09:00AM 34.8844 -76.7061 16° North 443 510 41,000  Level Washington Center
09:01AM 35.0036 -76.6597 18° North 443 510 41,000  Level Washington Center
09:02AM 35.1250 -76.6131 17° North 443 510 41,000  Level Washington Center
09:03AM 35.2444 -76.5686 17° North 443 510 41,000  Level Washington Center
09:04AM 35.3636 -76.5242 17° North 443 510 41,000  Level Washington Center
09:05AM 35.4725 -76.4772 19° North 443 510 41,000  Level Washington Center
09:06AM 35.5917 -76.4350 16° North 443 510 41,000  Level Washington Center
09:07AM 35.7131 -76.3875 18° North 443 510 41,000  Level Washington Center
09:08AM 35.8325 -76.3403 18° North 443 510 41,000  Level Washington Center
09:09AM 35.9494 -76.2950 17° North 443 510 41,000  Level Washington Center
09:10AM 36.0708 -76.2525 16° North 443 510 41,000  Level Washington Center
09:11AM 36.1900 -76.2044 18° North 443 510 41,000  Level Washington Center
09:12AM 36.3092 -76.1592 17° North 443 510 41,000  Level Washington Center
09:13AM 36.4325 -76.1133 17° North 443 510 41,000  Level Washington Center
09:14AM 36.5494 -76.0678 17° North 443 510 41,000  Level Washington Center
09:15AM 36.6644 -76.0192 19° North 443 510 41,000  Level Washington Center
09:16AM 36.7981 -75.9681 17° North 448 516 41,000  Level Washington Center
09:17AM 36.9128 -75.9219 18° North 442 509 41,000  Level Washington Center
09:18AM 37.0403 -75.8756 16° North 453 521 41,000  Level Washington Center
09:19AM 37.1550 -75.8292 18° North 447 514 41,000  Level Washington Center
09:20AM 37.2719 -75.7850 17° North 441 507 41,000  Level Washington Center
09:21AM 37.3908 -75.7383 17° North 441 507 41,000  Level Washington Center
09:22AM 37.5100 -75.6886 18° North 441 507 41,000  Level Washington Center
09:23AM 37.6308 -75.6417 17° North 441 507 41,000  Level Washington Center
09:24AM 37.7497 -75.5917 18° North 441 507 41,000  Level Washington Center
09:25AM 37.8708 -75.5444 17° North 441 507 41,000  Level Washington Center
09:26AM 37.9894 -75.4917 19° North 441 507 41,000  Level Washington Center
09:27AM 38.1042 -75.4361 21° North 441 507 41,000  Level Washington Center
09:28AM 38.2147 -75.3697 25° Northeast 441 507 41,000 -300 Level Washington Center
09:29AM 38.3000 -75.3139 27° Northeast 436 502 40,500 -840 Descending Washington Center
09:30AM 38.4167 -75.2367 27° Northeast 425 489 39,400 -780 Descending Washington Center
09:31AM 38.5206 -75.1592 30° Northeast 425 489 39,000 -240 Descending Washington Center
09:32AM 38.6181 -75.0761 34° Northeast 430 495 39,000  Level Washington Center
09:33AM 38.7136 -74.9744 40° Northeast 430 495 39,000  Level Washington Center
09:34AM 38.8047 -74.8778 40° Northeast 430 495 39,000 -360 Level Washington Center
09:35AM 38.9022 -74.7833 37° Northeast 430 495 38,300 -900 Descending Washington Center
09:36AM 38.9953 -74.6889 38° Northeast 435 501 37,300 -1,560 Descending Washington Center
09:37AM 39.0883 -74.5914 39° Northeast 435 501 35,200 -2,520 Descending Washington Center
09:38AM 39.1833 -74.4967 38° Northeast 457 526 32,300 -2,220 Descending New York Center
09:39AM 39.2803 -74.3944 39° Northeast 469 540 30,800 -2,580 Descending New York Center
09:40AM 39.3817 -74.2894 39° Northeast 464 534 27,300 -3,240 Descending New York Center
09:41AM 39.4742 -74.1919 39° Northeast 452 520 24,300 -2,160 Descending New York Center
09:42AM 39.5506 -74.0689 51° Northeast 445 512 23,000 -1,020 Descending New York Center
09:43AM 39.6006 -73.9178 67° East 431 496 22,300 -1,680 Descending New York Center
09:44AM 39.6503 -73.7717 66° East 436 502 19,800 -2,520 Descending New York Center
09:45AM 39.7181 -73.6506 54° Northeast 427 491 17,400 -2,220 Descending New York Center
09:46AM 39.8100 -73.5569 38° Northeast 414 476 15,400 -2,400 Descending New York Center
09:47AM 39.8994 -73.4658 38° Northeast 404 465 12,700 -2,220 Descending New York Center
09:48AM 39.9892 -73.3692 40° Northeast 391 450 11,000 -960 Descending New York Center
09:51AM 40.2353 -73.1086 39° Northeast 390 449 9,000 -540 Descending Boston Center
09:52AM 40.3150 -73.0253 39° Northeast 373 429 9,000 -720 Level Boston Center
09:54AM 40.5167 -72.8000 40° Northeast 328 377 6,500 -1,260 Descending New York TRACON
09:55AM 40.5833 -72.8333 339° North 294 338 4,900 -1,320 Descending New York TRACON
09:56AM 40.6333 -72.9167 308° West 290 334 4,000 -1,200 Descending New York TRACON
09:57AM 40.6667 -73.0167 294° West 276 318 2,600 -1,020 Descending New York TRACON
09:58AM 40.7000 -73.1000 298° West 258 297 2,000 -420 Descending New York TRACON
09:59AM 40.7167 -73.1500 294° West 209 241 1,900 -120 Descending New York TRACON